Time;durP1;ratioP1;P1;durP2;ratioP2;P2;SDS_P1;SDS_P2;PMS_P1;PMS_P2;Temp;Humidity;BMP_temperature;BMP_pressure;BME280_temperature;BME280_humidity;BME280_pressure;Samples;Min_cycle;Max_cycle;Signal;HPM_P1;HPM_P2
2022/01/04 00:02:33;;;;;;;15.48;10.70;;;;;;;;;;6025169;23;20008;-78
2022/01/04 00:05:12;;;;;;;12.25;9.10;;;;;;;;;;6027943;23;20038;-78
2022/01/04 00:08:12;;;;;;;12.35;9.00;;;;;;;;;;6021554;23;20016;-78
2022/01/04 00:11:41;;;;;;;21.00;15.95;;;;;;;;;;6028043;23;20008;-77
2022/01/04 00:13:59;;;;;;;16.40;13.20;;;;;;;;;;6040997;23;20017;-78
2022/01/04 00:16:55;;;;;;;10.97;8.33;;;;;;;;;;6008749;23;20060;-78
2022/01/04 00:22:37;;;;;;;11.35;7.55;;;;;;;;;;6072657;23;20018;-79
2022/01/04 00:25:10;;;;;;;10.48;7.72;;;;;;;;;;6207381;22;20074;-78
2022/01/04 00:27:41;;;;;;;11.32;8.50;;;;;;;;;;6241335;23;20044;-77
2022/01/04 00:30:18;;;;;;;11.88;8.27;;;;;;;;;;6239827;23;20000;-77
2022/01/04 00:33:10;;;;;;;16.23;11.82;;;;;;;;;;6240148;23;20008;-79
2022/01/04 00:36:05;;;;;;;11.07;8.23;;;;;;;;;;6210135;23;19998;-78
2022/01/04 00:38:56;;;;;;;16.38;11.50;;;;;;;;;;6191899;23;20001;-76
2022/01/04 00:41:22;;;;;;;12.70;9.02;;;;;;;;;;6207929;23;20013;-78
2022/01/04 00:43:51;;;;;;;14.00;9.75;;;;;;;;;;6210403;23;20119;-78
2022/01/04 00:46:22;;;;;;;15.45;11.10;;;;;;;;;;6201556;23;20031;-77
2022/01/04 00:51:55;;;;;;;14.43;10.10;;;;;;;;;;6201794;23;20119;-77
2022/01/04 00:54:24;;;;;;;;;;;;;;;;;;6201854;23;20039;-77
2022/01/04 00:56:50;;;;;;;15.52;10.48;;;;;;;;;;6199729;23;19892;-76
2022/01/04 00:59:19;;;;;;;15.45;9.82;;;;;;;;;;6199832;23;20044;-76
2022/01/04 01:02:15;;;;;;;14.02;10.05;;;;;;;;;;6180462;23;20013;-77
2022/01/04 01:04:49;;;;;;;15.48;10.20;;;;;;;;;;6205346;23;20009;-79
2022/01/04 01:07:29;;;;;;;16.48;10.57;;;;;;;;;;6206083;23;20021;-79
2022/01/04 01:13:22;;;;;;;15.43;11.07;;;;;;;;;;6126178;23;19997;-78
2022/01/04 01:15:53;;;;;;;14.60;10.45;;;;;;;;;;6094809;23;20022;-78
2022/01/04 01:18:22;;;;;;;14.38;9.88;;;;;;;;;;6144674;23;20006;-77
2022/01/04 01:20:59;;;;;;;16.45;10.63;;;;;;;;;;6148736;23;19989;-78
2022/01/04 01:23:49;;;;;;;17.95;11.82;;;;;;;;;;6147860;23;20002;-78
2022/01/04 01:26:33;;;;;;;18.85;12.15;;;;;;;;;;6146003;23;20096;-77
2022/01/04 01:29:33;;;;;;;18.60;11.02;;;;;;;;;;6170090;23;20021;-77
2022/01/04 01:32:22;;;;;;;16.15;10.18;;;;;;;;;;6144137;23;20002;-77
2022/01/04 01:34:56;;;;;;;14.85;10.75;;;;;;;;;;6145003;23;20006;-77
2022/01/04 01:37:27;;;;;;;16.83;11.18;;;;;;;;;;6148154;23;20006;-77
2022/01/04 01:40:05;;;;;;;16.30;11.35;;;;;;;;;;6143376;23;19990;-77
2022/01/04 01:42:59;;;;;;;16.55;10.85;;;;;;;;;;6147652;23;20028;-78
2022/01/04 01:45:38;;;;;;;16.00;10.90;;;;;;;;;;6207330;23;20016;-77
2022/01/04 01:48:32;;;;;;;15.15;11.00;;;;;;;;;;6208115;23;20020;-79
2022/01/04 01:55:01;;;;;;;;;;;;;;;;;;;;;
2022/01/04 02:01:00;;;;;;;;;;;;;;;;;;;;;
2022/01/04 02:07:13;;;;;;;;;;;;;;;;;;;;;
2022/01/04 02:45:57;;;;;;;24.95;16.48;;;;;;;;;;6242181;22;20070;-78
2022/01/04 02:49:26;;;;;;;;;;;;;;;;;;;;;
2022/01/04 03:16:48;;;;;;;;;;;;;;;;;;;;;
2022/01/04 03:19:34;;;;;;;23.20;13.65;;;;;;;;;;6088465;23;20007;-78
2022/01/04 03:22:31;;;;;;;15.85;11.13;;;;;;;;;;6122762;23;19999;-78
2022/01/04 03:28:55;;;;;;;15.23;9.68;;;;;;;;;;5977505;24;20087;-79
2022/01/04 03:32:13;;;;;;;;;;;;;;;;;;;;;
2022/01/04 03:34:58;;;;;;;16.27;9.35;;;;;;;;;;5979858;24;19993;-79
2022/01/04 03:37:51;;;;;;;12.95;8.40;;;;;;;;;;5979045;24;20032;-81
2022/01/04 03:40:48;;;;;;;12.52;8.40;;;;;;;;;;5925793;24;19997;-79
2022/01/04 03:43:27;;;;;;;;;;;;;;;;;;5840542;24;20013;-81
2022/01/04 03:46:31;;;;;;;12.68;8.95;;;;;;;;;;5922601;24;19888;-79
2022/01/04 03:49:33;;;;;;;;;;;;;;;;;;;;;
2022/01/04 03:52:36;;;;;;;13.05;8.18;;;;;;;;;;5720456;25;20005;-79
2022/01/04 03:59:05;;;;;;;11.90;8.30;;;;;;;;;;5738954;24;20137;-78
2022/01/04 04:02:05;;;;;;;15.75;9.40;;;;;;;;;;5714594;25;20009;-83
2022/01/04 04:05:05;;;;;;;;;;;;;;;;;;;;;
2022/01/04 04:08:02;;;;;;;14.88;9.18;;;;;;;;;;5814234;24;20042;-79
2022/01/04 04:11:11;;;;;;;;;;;;;;;;;;;;;
2022/01/04 04:14:19;;;;;;;30.58;17.63;;;;;;;;;;5784132;24;20012;-78
2022/01/04 04:20:48;;;;;;;;;;;;;;;;;;;;;
2022/01/04 04:23:17;;;;;;;20.90;11.40;;;;;;;;;;5754155;24;20499;-74
2022/01/04 04:26:08;;;;;;;;;;;;;;;;;;;;;
2022/01/04 04:28:42;;;;;;;14.25;9.10;;;;;;;;;;5823224;24;20011;-79
2022/01/04 04:31:30;;;;;;;;;;;;;;;;;;5848671;24;20010;-79
2022/01/04 04:43:54;;;;;;;;;;;;;;;;;;;;;
2022/01/04 04:49:26;;;;;;;17.75;8.85;;;;;;;;;;6059892;23;20012;-79
2022/01/04 04:52:21;;;;;;;16.25;9.65;;;;;;;;;;6049182;23;20071;-79
2022/01/04 07:03:26;;;;;;;18.55;8.57;;;;;;;;;;6275007;22;20031;-82
2022/01/04 07:06:40;;;;;;;19.55;7.93;;;;;;;;;;6219669;23;20064;-82
2022/01/04 07:17:18;;;;;;;27.58;15.57;;;;;;;;;;6281415;22;20050;-79
2022/01/04 07:19:49;;;;;;;29.80;21.10;;;;;;;;;;6287931;22;20020;-79
2022/01/04 07:22:45;;;;;;;23.73;13.77;;;;;;;;;;6248232;22;20072;-80
2022/01/04 07:25:34;;;;;;;21.05;12.02;;;;;;;;;;6295590;22;20008;-79
2022/01/04 07:28:08;;;;;;;24.05;12.63;;;;;;;;;;6293130;22;20027;-78
2022/01/04 07:31:01;;;;;;;21.52;12.32;;;;;;;;;;6267526;22;20003;-79
2022/01/04 07:33:29;;;;;;;17.55;11.82;;;;;;;;;;6292945;22;20007;-80
2022/01/04 07:36:30;;;;;;;18.10;8.82;;;;;;;;;;6291741;22;20059;-79
2022/01/04 07:42:04;;;;;;;23.70;13.05;;;;;;;;;;6146078;23;20057;-76
2022/01/04 07:44:38;;;;;;;20.27;12.70;;;;;;;;;;6114861;23;20006;-77
2022/01/04 07:47:06;;;;;;;31.20;16.48;;;;;;;;;;6120789;23;20010;-76
2022/01/04 07:50:13;;;;;;;21.58;13.85;;;;;;;;;;6146692;23;19998;-77
2022/01/04 07:52:54;;;;;;;17.08;11.27;;;;;;;;;;6138274;23;20014;-78
2022/01/04 07:55:29;;;;;;;21.45;11.35;;;;;;;;;;6139650;23;19998;-79
2022/01/04 07:57:58;;;;;;;15.23;8.82;;;;;;;;;;6145782;23;20041;-76
2022/01/04 08:00:30;;;;;;;20.35;11.00;;;;;;;;;;6109140;23;20014;-77
2022/01/04 08:02:58;;;;;;;21.05;12.15;;;;;;;;;;6114302;23;20022;-78
2022/01/04 08:05:26;;;;;;;19.75;11.43;;;;;;;;;;6111129;23;20007;-78
2022/01/04 08:08:01;;;;;;;18.20;11.65;;;;;;;;;;6088967;23;20006;-81
2022/01/04 08:10:52;;;;;;;21.10;11.55;;;;;;;;;;6115464;23;20018;-79
2022/01/04 08:13:21;;;;;;;22.77;12.40;;;;;;;;;;6102920;23;20017;-75
2022/01/04 08:15:47;;;;;;;21.60;12.63;;;;;;;;;;6110077;23;20094;-77
2022/01/04 08:18:14;;;;;;;24.50;12.90;;;;;;;;;;6153939;23;20008;-76
2022/01/04 08:20:45;;;;;;;30.55;15.15;;;;;;;;;;6262763;23;20000;-78
2022/01/04 08:23:12;;;;;;;30.10;14.05;;;;;;;;;;6192080;22;20056;-81
2022/01/04 08:25:41;;;;;;;25.17;11.73;;;;;;;;;;6191804;23;20012;-78
2022/01/04 08:28:07;;;;;;;15.57;9.25;;;;;;;;;;6237046;23;20044;-75
2022/01/04 08:31:00;;;;;;;19.17;9.27;;;;;;;;;;6224234;23;20083;-81
2022/01/04 08:33:31;;;;;;;12.80;7.95;;;;;;;;;;6196952;23;20076;-79
2022/01/04 08:36:09;;;;;;;11.63;8.23;;;;;;;;;;6194179;23;20033;-80
2022/01/04 08:38:54;;;;;;;16.63;9.02;;;;;;;;;;6175971;23;20010;-81
2022/01/04 08:41:22;;;;;;;11.55;8.10;;;;;;;;;;6147974;23;20024;-77
2022/01/04 08:43:58;;;;;;;14.20;8.30;;;;;;;;;;6144109;23;20053;-77
2022/01/04 08:46:28;;;;;;;15.57;8.20;;;;;;;;;;6143626;23;20507;-82
2022/01/04 08:48:59;;;;;;;17.77;7.13;;;;;;;;;;6148481;23;20086;-78
2022/01/04 08:51:31;;;;;;;14.00;7.13;;;;;;;;;;6150562;23;20006;-78
2022/01/04 08:59:10;;;;;;;9.32;6.60;;;;;;;;;;6252479;22;20047;-77
2022/01/04 09:01:45;;;;;;;12.38;6.55;;;;;;;;;;6266675;22;19996;-81
2022/01/04 09:04:12;;;;;;;11.98;6.70;;;;;;;;;;6293902;22;20010;-74
2022/01/04 09:06:38;;;;;;;10.82;5.93;;;;;;;;;;6295754;22;19995;-75
2022/01/04 09:09:06;;;;;;;17.33;6.88;;;;;;;;;;6298898;22;19984;-78
2022/01/04 09:11:35;;;;;;;9.15;6.50;;;;;;;;;;6269340;22;20003;-76
2022/01/04 09:14:40;;;;;;;12.20;5.95;;;;;;;;;;6285707;22;20030;-75
2022/01/04 09:19:39;;;;;;;11.23;6.22;;;;;;;;;;6280432;22;20011;-71
2022/01/04 09:22:06;;;;;;;14.98;6.70;;;;;;;;;;6256148;22;20030;-69
2022/01/04 09:24:32;;;;;;;11.82;6.25;;;;;;;;;;6282348;22;20004;-75
2022/01/04 09:27:01;;;;;;;13.75;6.55;;;;;;;;;;6284067;22;20324;-73
2022/01/04 09:29:28;;;;;;;16.42;9.85;;;;;;;;;;6287006;22;20014;-75
2022/01/04 09:31:55;;;;;;;14.15;8.95;;;;;;;;;;6262556;22;20011;-75
2022/01/04 09:34:21;;;;;;;9.95;7.30;;;;;;;;;;6256367;22;19999;-71
2022/01/04 09:36:47;;;;;;;14.38;7.78;;;;;;;;;;6277400;22;20042;-71
2022/01/04 09:39:16;;;;;;;13.85;6.70;;;;;;;;;;6277805;22;20000;-70
2022/01/04 09:41:42;;;;;;;10.77;7.47;;;;;;;;;;6277202;22;20000;-70
2022/01/04 09:44:09;;;;;;;15.85;8.43;;;;;;;;;;6250864;22;20011;-70
2022/01/04 09:46:38;;;;;;;11.10;7.25;;;;;;;;;;6250964;22;20065;-71
2022/01/04 09:49:04;;;;;;;9.68;6.68;;;;;;;;;;6250643;22;20004;-71
2022/01/04 09:51:31;;;;;;;17.42;6.95;;;;;;;;;;6277678;22;19999;-72
2022/01/04 09:53:58;;;;;;;21.17;7.40;;;;;;;;;;6283079;22;20011;-75
2022/01/04 09:56:24;;;;;;;11.77;6.32;;;;;;;;;;6284902;22;20031;-72
2022/01/04 09:58:51;;;;;;;14.70;7.43;;;;;;;;;;6279832;22;20014;-73
2022/01/04 10:01:30;;;;;;;18.67;8.40;;;;;;;;;;6261488;22;20016;-77
2022/01/04 10:03:56;;;;;;;17.95;6.60;;;;;;;;;;6279727;22;20069;-74
2022/01/04 10:06:30;;;;;;;10.50;6.15;;;;;;;;;;6282480;22;20038;-75
2022/01/04 10:08:56;;;;;;;10.90;6.20;;;;;;;;;;6279672;22;19999;-72
2022/01/04 10:11:30;;;;;;;12.35;5.72;;;;;;;;;;6252602;22;20004;-74
2022/01/04 10:13:57;;;;;;;10.77;6.00;;;;;;;;;;6278368;22;20376;-71
2022/01/04 10:16:23;;;;;;;18.45;7.28;;;;;;;;;;6278558;22;20012;-75
2022/01/04 10:18:50;;;;;;;8.02;5.47;;;;;;;;;;6278310;22;20007;-76
2022/01/04 10:21:16;;;;;;;7.82;5.07;;;;;;;;;;6287805;22;20007;-73
2022/01/04 10:23:44;;;;;;;12.07;6.80;;;;;;;;;;6256621;22;20009;-75
2022/01/04 10:26:10;;;;;;;12.57;6.93;;;;;;;;;;6293302;22;20022;-74
2022/01/04 10:28:44;;;;;;;10.02;6.70;;;;;;;;;;6293401;22;20027;-73
2022/01/04 10:31:12;;;;;;;7.30;5.47;;;;;;;;;;6288755;22;20004;-74
2022/01/04 10:33:38;;;;;;;8.00;5.43;;;;;;;;;;6291265;22;20022;-74
2022/01/04 10:36:11;;;;;;;13.18;5.78;;;;;;;;;;6291446;22;19996;-73
2022/01/04 10:38:38;;;;;;;11.45;6.05;;;;;;;;;;6293221;22;20004;-72
2022/01/04 10:41:06;;;;;;;13.82;6.28;;;;;;;;;;6290717;22;19995;-73
2022/01/04 10:43:35;;;;;;;16.17;6.80;;;;;;;;;;6289065;22;20056;-73
2022/01/04 10:46:05;;;;;;;12.05;6.20;;;;;;;;;;6283612;22;20464;-76
2022/01/04 10:48:32;;;;;;;9.60;5.90;;;;;;;;;;6258722;22;20000;-76
2022/01/04 10:51:07;;;;;;;9.88;6.40;;;;;;;;;;6286413;22;20030;-76
2022/01/04 10:53:53;;;;;;;13.25;6.45;;;;;;;;;;6288431;22;19996;-76
2022/01/04 10:56:31;;;;;;;16.60;7.03;;;;;;;;;;6287349;22;20090;-76
2022/01/04 10:59:00;;;;;;;11.82;6.47;;;;;;;;;;6285905;22;20098;-76
2022/01/04 11:01:29;;;;;;;9.23;6.45;;;;;;;;;;6285022;22;20388;-75
2022/01/04 11:03:57;;;;;;;10.18;6.47;;;;;;;;;;6278949;22;19999;-72
2022/01/04 11:06:32;;;;;;;9.50;6.50;;;;;;;;;;6277883;22;20003;-72
2022/01/04 11:08:58;;;;;;;20.95;7.55;;;;;;;;;;6278093;22;20007;-72
2022/01/04 11:11:25;;;;;;;13.18;7.13;;;;;;;;;;6278749;22;20005;-71
2022/01/04 11:13:52;;;;;;;23.98;15.68;;;;;;;;;;6251713;22;20477;-74
2022/01/04 11:16:24;;;;;;;13.40;7.90;;;;;;;;;;6291288;22;20062;-76
2022/01/04 11:18:52;;;;;;;23.38;9.57;;;;;;;;;;6261866;22;20329;-75
2022/01/04 11:21:26;;;;;;;15.55;8.32;;;;;;;;;;6279293;22;20000;-73
2022/01/04 11:23:52;;;;;;;;;;;;;;;;;;6287555;22;20003;-72
2022/01/04 11:26:18;;;;;;;15.48;8.73;;;;;;;;;;6293991;22;19906;-72
2022/01/04 11:28:48;;;;;;;16.77;8.98;;;;;;;;;;6291637;22;20002;-73
2022/01/04 11:31:34;;;;;;;13.32;8.40;;;;;;;;;;6294884;22;19991;-74
2022/01/04 11:34:09;;;;;;;13.75;9.05;;;;;;;;;;6287267;22;20048;-76
2022/01/04 11:36:35;;;;;;;12.85;6.90;;;;;;;;;;6282802;22;20011;-73
2022/01/04 11:39:01;;;;;;;16.35;6.85;;;;;;;;;;6281259;22;20004;-73
2022/01/04 11:41:33;;;;;;;14.07;6.50;;;;;;;;;;6289669;22;20031;-79
2022/01/04 11:44:16;;;;;;;10.13;6.63;;;;;;;;;;6290802;22;20000;-74
2022/01/04 11:46:42;;;;;;;10.77;6.32;;;;;;;;;;6290404;22;20000;-75
2022/01/04 11:49:13;;;;;;;11.57;6.63;;;;;;;;;;6292601;22;20023;-75
2022/01/04 11:51:44;;;;;;;11.98;6.25;;;;;;;;;;6291993;22;20007;-75
2022/01/04 11:54:32;;;;;;;13.02;6.85;;;;;;;;;;6291545;22;20007;-78
2022/01/04 11:57:06;;;;;;;18.17;8.77;;;;;;;;;;6296453;22;20444;-76
2022/01/04 12:00:12;;;;;;;11.80;7.18;;;;;;;;;;6291806;22;20015;-78
2022/01/04 12:02:43;;;;;;;24.30;9.02;;;;;;;;;;6290272;22;20039;-78
2022/01/04 12:05:39;;;;;;;10.50;7.10;;;;;;;;;;6262551;22;20420;-78
2022/01/04 12:08:15;;;;;;;11.90;7.30;;;;;;;;;;6136718;23;19990;-79
2022/01/04 12:10:42;;;;;;;19.20;9.02;;;;;;;;;;6113370;23;20001;-78
2022/01/04 12:13:19;;;;;;;12.88;7.70;;;;;;;;;;6090419;23;20020;-77
2022/01/04 12:16:11;;;;;;;12.57;6.43;;;;;;;;;;6137833;23;20008;-77
2022/01/04 12:18:37;;;;;;;17.15;8.73;;;;;;;;;;6107590;23;20461;-78
2022/01/04 12:21:26;;;;;;;11.13;6.80;;;;;;;;;;6105730;23;19999;-78
2022/01/04 12:23:53;;;;;;;13.65;7.35;;;;;;;;;;6106560;23;20002;-78
2022/01/04 12:26:25;;;;;;;14.07;7.00;;;;;;;;;;6105171;23;20014;-78
2022/01/04 12:28:55;;;;;;;18.20;7.50;;;;;;;;;;6104255;23;20298;-77
2022/01/04 12:31:24;;;;;;;9.43;7.05;;;;;;;;;;6081240;23;20010;-78
2022/01/04 12:33:54;;;;;;;15.27;7.80;;;;;;;;;;6106662;23;20006;-77
2022/01/04 12:36:35;;;;;;;16.50;8.00;;;;;;;;;;6105380;23;20010;-78
2022/01/04 12:39:04;;;;;;;12.43;7.65;;;;;;;;;;6108549;23;20131;-78
2022/01/04 12:41:32;;;;;;;17.55;9.27;;;;;;;;;;6109509;23;20034;-77
2022/01/04 12:44:03;;;;;;;20.60;9.77;;;;;;;;;;6132192;23;20005;-77
2022/01/04 12:46:50;;;;;;;14.80;8.80;;;;;;;;;;6193823;23;20012;-79
2022/01/04 12:49:17;;;;;;;18.77;10.20;;;;;;;;;;6203178;23;20096;-78
2022/01/04 12:51:47;;;;;;;14.63;9.15;;;;;;;;;;6191380;23;20016;-71
2022/01/04 12:54:20;;;;;;;14.27;8.95;;;;;;;;;;6186406;23;20443;-76
2022/01/04 12:56:47;;;;;;;21.05;11.13;;;;;;;;;;6250495;22;20000;-74
2022/01/04 12:59:26;;;;;;;17.25;9.25;;;;;;;;;;6280594;22;20042;-71
2022/01/04 13:02:03;;;;;;;16.08;8.02;;;;;;;;;;6252847;22;20378;-73
2022/01/04 13:04:33;;;;;;;13.80;8.90;;;;;;;;;;6280542;22;20000;-72
2022/01/04 13:07:02;;;;;;;18.50;8.98;;;;;;;;;;6291866;22;20007;-76
2022/01/04 13:09:28;;;;;;;15.60;7.93;;;;;;;;;;6280447;22;20000;-76
2022/01/04 13:12:04;;;;;;;13.50;7.40;;;;;;;;;;6283575;22;20027;-75
2022/01/04 13:14:34;;;;;;;17.38;8.02;;;;;;;;;;6290857;22;20007;-79
2022/01/04 13:17:08;;;;;;;17.27;9.32;;;;;;;;;;6285595;22;20131;-75
2022/01/04 13:19:36;;;;;;;18.52;9.35;;;;;;;;;;6265823;22;20012;-78
2022/01/04 13:22:08;;;;;;;15.80;8.50;;;;;;;;;;6265506;22;20007;-77
2022/01/04 13:24:39;;;;;;;10.85;6.93;;;;;;;;;;6255638;22;20003;-76
2022/01/04 13:27:23;;;;;;;13.38;8.02;;;;;;;;;;6285610;22;19995;-75
2022/01/04 13:30:00;;;;;;;11.18;7.50;;;;;;;;;;6286743;22;20006;-78
2022/01/04 13:35:48;;;;;;;17.85;11.27;;;;;;;;;;6150432;23;20062;-81
2022/01/04 13:38:41;;;;;;;20.50;9.60;;;;;;;;;;6123658;23;20007;-81
2022/01/04 13:41:40;;;;;;;15.73;12.70;;;;;;;;;;6066708;23;20042;-77
2022/01/04 13:44:23;;;;;;;19.33;11.40;;;;;;;;;;6112764;23;20009;-81
2022/01/04 13:47:12;;;;;;;15.35;11.60;;;;;;;;;;6089867;23;20006;-77
2022/01/04 13:49:46;;;;;;;16.60;11.40;;;;;;;;;;6105591;23;20021;-77
2022/01/04 13:52:18;;;;;;;13.20;9.02;;;;;;;;;;6102858;23;20413;-76
2022/01/04 13:54:44;;;;;;;18.65;9.75;;;;;;;;;;6104234;23;20014;-77
2022/01/04 13:57:15;;;;;;;16.73;11.60;;;;;;;;;;6105832;23;20066;-76
2022/01/04 13:59:44;;;;;;;21.90;13.10;;;;;;;;;;6106420;23;20021;-76
2022/01/04 14:02:30;;;;;;;19.70;11.63;;;;;;;;;;6107609;23;20018;-75
2022/01/04 14:05:15;;;;;;;37.05;21.38;;;;;;;;;;6104950;23;20069;-75
2022/01/04 14:07:44;;;;;;;33.17;20.73;;;;;;;;;;6080036;23;20095;-76
2022/01/04 14:10:14;;;;;;;19.40;11.40;;;;;;;;;;6109316;23;20013;-77
2022/01/04 14:12:46;;;;;;;20.05;11.30;;;;;;;;;;6113149;23;20006;-79
2022/01/04 14:15:15;;;;;;;19.10;11.95;;;;;;;;;;6158455;23;20012;-77
2022/01/04 14:17:57;;;;;;;22.55;12.70;;;;;;;;;;6230515;23;20008;-78
2022/01/04 14:21:06;;;;;;;15.55;10.85;;;;;;;;;;6218790;23;19989;-79
2022/01/04 14:23:36;;;;;;;16.27;10.63;;;;;;;;;;6246463;23;20011;-78
2022/01/04 14:26:08;;;;;;;17.60;11.50;;;;;;;;;;6265394;23;20000;-73
2022/01/04 14:28:34;;;;;;;18.50;12.10;;;;;;;;;;6256714;23;19992;-74
2022/01/04 14:31:01;;;;;;;20.83;11.35;;;;;;;;;;6242649;23;20502;-74
2022/01/04 14:33:29;;;;;;;19.63;10.60;;;;;;;;;;6250146;23;20069;-73
2022/01/04 14:35:56;;;;;;;19.88;9.95;;;;;;;;;;6223741;23;20000;-72
2022/01/04 14:44:32;;;;;;;17.08;9.88;;;;;;;;;;6259847;22;20019;-73
2022/01/04 14:47:07;;;;;;;19.80;10.05;;;;;;;;;;6255393;23;19996;-76
2022/01/04 14:49:33;;;;;;;16.30;9.80;;;;;;;;;;6265695;23;20059;-77
2022/01/04 14:52:01;;;;;;;19.50;10.52;;;;;;;;;;6267191;23;20004;-75
2022/01/04 14:54:27;;;;;;;15.52;9.60;;;;;;;;;;6236246;23;20004;-78
2022/01/04 14:56:53;;;;;;;27.70;12.50;;;;;;;;;;6262914;23;20018;-77
2022/01/04 14:59:20;;;;;;;22.15;11.20;;;;;;;;;;6267022;22;20320;-77
2022/01/04 15:01:46;;;;;;;15.95;10.52;;;;;;;;;;6257751;22;20012;-77
2022/01/04 15:04:13;;;;;;;24.33;12.57;;;;;;;;;;6261586;22;20023;-78
2022/01/04 15:06:42;;;;;;;21.17;12.98;;;;;;;;;;6260893;22;20011;-77
2022/01/04 15:09:13;;;;;;;16.98;10.57;;;;;;;;;;6286085;22;20023;-76
2022/01/04 15:11:43;;;;;;;23.55;11.80;;;;;;;;;;6262988;22;20058;-78
2022/01/04 15:14:09;;;;;;;34.45;18.50;;;;;;;;;;6287909;22;19995;-78
2022/01/04 15:17:05;;;;;;;18.40;12.57;;;;;;;;;;6283372;22;20004;-77
2022/01/04 15:20:16;;;;;;;18.42;9.60;;;;;;;;;;6286346;22;20011;-78
2022/01/04 15:22:46;;;;;;;13.32;8.63;;;;;;;;;;6285286;22;20333;-77
2022/01/04 15:25:13;;;;;;;20.65;9.75;;;;;;;;;;6277797;22;20012;-73
2022/01/04 15:27:39;;;;;;;17.15;10.20;;;;;;;;;;6250466;22;20020;-74
2022/01/04 15:30:11;;;;;;;19.40;9.90;;;;;;;;;;6276453;22;20113;-73
2022/01/04 15:32:45;;;;;;;17.25;11.80;;;;;;;;;;6289721;22;20004;-77
2022/01/04 15:35:14;;;;;;;19.85;12.15;;;;;;;;;;6289059;22;20008;-77
2022/01/04 15:37:45;;;;;;;29.02;14.23;;;;;;;;;;6213373;22;20085;-77
2022/01/04 15:40:14;;;;;;;23.05;14.20;;;;;;;;;;6278820;22;20074;-74
2022/01/04 15:42:43;;;;;;;22.65;13.48;;;;;;;;;;6252593;22;20011;-75
2022/01/04 15:45:14;;;;;;;19.85;12.45;;;;;;;;;;6280534;22;20011;-76
2022/01/04 15:47:51;;;;;;;21.90;14.18;;;;;;;;;;6261740;22;20014;-76
2022/01/04 15:50:17;;;;;;;30.10;16.48;;;;;;;;;;6278103;22;20007;-75
2022/01/04 15:53:06;;;;;;;26.10;15.98;;;;;;;;;;6289828;22;20002;-79
2022/01/04 15:55:32;;;;;;;23.67;13.43;;;;;;;;;;6228456;23;20175;-77
2022/01/04 15:58:01;;;;;;;22.30;11.77;;;;;;;;;;6201106;23;20017;-79
2022/01/04 16:00:27;;;;;;;23.63;13.48;;;;;;;;;;6221124;23;20100;-73
2022/01/04 16:02:55;;;;;;;21.42;12.50;;;;;;;;;;6216527;23;20016;-77
2022/01/04 16:05:22;;;;;;;14.45;10.13;;;;;;;;;;6191579;23;20355;-76
2022/01/04 16:07:49;;;;;;;18.98;12.50;;;;;;;;;;6218221;23;20011;-77
2022/01/04 16:10:21;;;;;;;28.45;13.85;;;;;;;;;;6221082;23;20044;-76
2022/01/04 16:12:52;;;;;;;21.70;12.10;;;;;;;;;;6218023;23;20016;-74
2022/01/04 16:15:23;;;;;;;20.70;13.57;;;;;;;;;;6217567;23;20331;-79
2022/01/04 16:17:57;;;;;;;21.88;12.00;;;;;;;;;;6197054;23;20075;-75
2022/01/04 16:23:10;;;;;;;29.38;14.88;;;;;;;;;;6217576;23;20023;-75
2022/01/04 16:25:37;;;;;;;43.60;24.55;;;;;;;;;;6228988;22;20031;-76
2022/01/04 16:28:04;;;;;;;50.90;26.67;;;;;;;;;;6281674;22;20376;-75
2022/01/04 16:30:31;;;;;;;53.97;27.70;;;;;;;;;;6279489;22;20334;-72
2022/01/04 16:32:57;;;;;;;26.23;11.52;;;;;;;;;;6252631;22;19999;-75
2022/01/04 16:35:26;;;;;;;21.77;12.95;;;;;;;;;;6249417;22;20035;-77
2022/01/04 16:37:52;;;;;;;27.52;15.02;;;;;;;;;;6251183;22;20023;-72
2022/01/04 16:40:23;;;;;;;45.92;19.63;;;;;;;;;;6278022;22;20023;-75
2022/01/04 16:42:50;;;;;;;64.90;30.60;;;;;;;;;;6280194;22;20004;-73
2022/01/04 16:45:16;;;;;;;46.92;23.08;;;;;;;;;;6279634;22;20007;-75
2022/01/04 16:47:43;;;;;;;31.42;17.23;;;;;;;;;;6279536;22;20467;-75
2022/01/04 16:50:14;;;;;;;23.58;13.38;;;;;;;;;;6281344;22;20038;-75
2022/01/04 16:52:42;;;;;;;21.42;13.25;;;;;;;;;;6287760;22;20015;-76
2022/01/04 16:55:15;;;;;;;18.88;11.07;;;;;;;;;;6291589;22;20003;-76
2022/01/04 16:57:42;;;;;;;23.77;12.70;;;;;;;;;;6282380;22;20015;-75
2022/01/04 17:00:10;;;;;;;23.65;14.10;;;;;;;;;;6280881;22;20045;-75
2022/01/04 17:02:36;;;;;;;14.57;9.27;;;;;;;;;;6280638;22;20114;-75
2022/01/04 17:05:03;;;;;;;15.25;8.70;;;;;;;;;;6279498;22;20067;-74
2022/01/04 17:07:29;;;;;;;13.60;8.20;;;;;;;;;;6280515;22;20007;-74
2022/01/04 17:09:58;;;;;;;12.20;8.10;;;;;;;;;;6285451;22;20441;-76
2022/01/04 17:17:38;;;;;;;12.07;8.50;;;;;;;;;;6286433;22;20031;-78
2022/01/04 17:20:05;;;;;;;14.80;10.45;;;;;;;;;;6286690;22;19995;-75
2022/01/04 17:22:31;;;;;;;20.63;10.40;;;;;;;;;;6281400;22;20004;-76
2022/01/04 17:24:58;;;;;;;16.33;9.57;;;;;;;;;;6253059;22;20082;-75
2022/01/04 17:27:24;;;;;;;22.52;11.07;;;;;;;;;;6280257;22;20008;-75
2022/01/04 17:29:53;;;;;;;19.75;11.63;;;;;;;;;;6279767;22;20000;-75
2022/01/04 17:32:19;;;;;;;20.95;11.80;;;;;;;;;;6281455;22;20011;-74
2022/01/04 17:34:46;;;;;;;17.38;11.13;;;;;;;;;;6279783;22;20065;-72
2022/01/04 17:37:13;;;;;;;16.52;10.55;;;;;;;;;;6278374;22;20012;-73
2022/01/04 17:39:39;;;;;;;24.15;15.27;;;;;;;;;;6253993;22;20460;-76
2022/01/04 17:42:05;;;;;;;33.33;16.92;;;;;;;;;;6279275;22;20049;-75
2022/01/04 17:44:32;;;;;;;32.95;19.27;;;;;;;;;;6278292;22;20475;-73
2022/01/04 17:46:58;;;;;;;20.15;13.80;;;;;;;;;;6277781;22;20438;-72
2022/01/04 17:49:24;;;;;;;20.15;10.15;;;;;;;;;;6279273;22;20000;-76
2022/01/04 17:51:50;;;;;;;21.38;12.65;;;;;;;;;;6280394;22;20003;-73
2022/01/04 17:54:16;;;;;;;25.25;15.05;;;;;;;;;;6254553;22;20019;-74
2022/01/04 17:56:45;;;;;;;17.70;10.35;;;;;;;;;;6280138;22;20012;-77
2022/01/04 17:59:11;;;;;;;31.48;18.65;;;;;;;;;;6253354;22;20043;-75
2022/01/04 18:01:37;;;;;;;30.90;17.40;;;;;;;;;;6253001;22;20006;-75
2022/01/04 18:04:03;;;;;;;37.00;17.67;;;;;;;;;;6279975;22;19999;-75
2022/01/04 18:06:29;;;;;;;24.08;14.65;;;;;;;;;;6280264;22;20008;-73
2022/01/04 18:08:55;;;;;;;14.85;9.57;;;;;;;;;;6280742;22;20078;-73
2022/01/04 18:11:21;;;;;;;17.83;10.98;;;;;;;;;;6279658;22;19996;-75
2022/01/04 18:13:47;;;;;;;29.35;14.30;;;;;;;;;;6281470;22;20452;-75
2022/01/04 18:16:20;;;;;;;19.13;11.15;;;;;;;;;;6289970;22;19988;-77
2022/01/04 18:19:40;;;;;;;23.35;12.88;;;;;;;;;;6294535;22;19995;-78
2022/01/04 18:22:06;;;;;;;17.20;10.02;;;;;;;;;;6268828;22;20099;-77
2022/01/04 18:24:33;;;;;;;17.67;9.60;;;;;;;;;;6284097;22;20075;-75
2022/01/04 18:26:59;;;;;;;20.30;9.63;;;;;;;;;;6279572;22;20392;-75
2022/01/04 18:29:25;;;;;;;13.23;8.63;;;;;;;;;;6280222;22;19995;-74
2022/01/04 18:31:51;;;;;;;14.45;9.18;;;;;;;;;;6284487;22;20006;-77
2022/01/04 18:34:19;;;;;;;16.45;8.65;;;;;;;;;;6261961;22;20418;-77
2022/01/04 18:36:50;;;;;;;13.38;8.13;;;;;;;;;;6286312;22;20003;-76
2022/01/04 18:39:16;;;;;;;11.32;7.30;;;;;;;;;;6282960;22;20007;-74
2022/01/04 18:41:44;;;;;;;20.27;11.15;;;;;;;;;;6282776;22;20069;-73
2022/01/04 18:44:10;;;;;;;13.73;9.40;;;;;;;;;;6286302;22;20010;-73
2022/01/04 18:46:36;;;;;;;19.42;10.63;;;;;;;;;;6283902;22;20007;-76
2022/01/04 18:49:06;;;;;;;15.65;9.15;;;;;;;;;;6283918;22;19999;-74
2022/01/04 18:51:32;;;;;;;14.32;9.30;;;;;;;;;;6257513;22;20004;-74
2022/01/04 18:53:59;;;;;;;16.65;10.40;;;;;;;;;;6282831;22;19999;-75
2022/01/04 18:56:27;;;;;;;18.95;11.25;;;;;;;;;;6279745;22;20018;-75
2022/01/04 18:58:58;;;;;;;15.23;9.85;;;;;;;;;;6283845;22;20042;-76
2022/01/04 19:01:25;;;;;;;17.48;10.45;;;;;;;;;;6263665;22;20331;-77
2022/01/04 19:03:52;;;;;;;17.55;10.57;;;;;;;;;;6294162;22;20031;-74
2022/01/04 19:06:18;;;;;;;20.27;10.95;;;;;;;;;;6297100;22;19987;-75
2022/01/04 19:08:44;;;;;;;17.73;10.40;;;;;;;;;;6293897;22;20000;-74
2022/01/04 19:11:10;;;;;;;15.32;9.80;;;;;;;;;;6290808;22;20003;-74
2022/01/04 19:13:37;;;;;;;18.75;10.90;;;;;;;;;;6292194;22;20071;-75
2022/01/04 19:16:03;;;;;;;18.38;10.20;;;;;;;;;;6292967;22;20434;-74
2022/01/04 19:18:32;;;;;;;17.48;10.68;;;;;;;;;;6292993;22;20044;-74
2022/01/04 19:20:59;;;;;;;16.08;10.30;;;;;;;;;;6260336;22;20004;-74
2022/01/04 19:23:32;;;;;;;16.85;9.88;;;;;;;;;;6258831;22;20381;-74
2022/01/04 19:26:01;;;;;;;15.82;10.07;;;;;;;;;;6287185;22;19996;-75
2022/01/04 19:28:33;;;;;;;14.55;9.60;;;;;;;;;;6286528;22;20007;-73
2022/01/04 19:31:00;;;;;;;16.13;9.85;;;;;;;;;;6258287;22;20018;-77
2022/01/04 19:36:14;;;;;;;17.67;10.77;;;;;;;;;;6283774;22;20091;-75
2022/01/04 19:38:41;;;;;;;20.08;11.30;;;;;;;;;;6261693;22;20433;-75
2022/01/04 19:41:07;;;;;;;16.35;11.00;;;;;;;;;;6289371;22;19999;-74
2022/01/04 19:43:34;;;;;;;17.45;11.48;;;;;;;;;;6276364;22;20045;-73
2022/01/04 19:46:02;;;;;;;21.60;12.68;;;;;;;;;;6248126;22;20101;-72
2022/01/04 19:48:28;;;;;;;20.23;10.63;;;;;;;;;;6260314;22;20008;-74
2022/01/04 19:51:01;;;;;;;18.98;11.57;;;;;;;;;;6292995;22;19996;-76